sensor_id;sensor_type;location;lat;lon;timestamp;pressure;altitude;pressure_sealevel;temperature
70417;BMP280;57839;51.332;12.410;2024-02-16T00:00:43;100247.28;;;12.17
70417;BMP280;57839;51.332;12.410;2024-02-16T00:03:12;100248.06;;;12.17
70417;BMP280;57839;51.332;12.410;2024-02-16T00:05:37;100241.53;;;12.18
70417;BMP280;57839;51.332;12.410;2024-02-16T00:08:02;100244.22;;;12.18
70417;BMP280;57839;51.332;12.410;2024-02-16T00:10:28;100234.97;;;12.19
70417;BMP280;57839;51.332;12.410;2024-02-16T00:12:54;100234.97;;;12.19
70417;BMP280;57839;51.332;12.410;2024-02-16T00:15:19;100234.63;;;12.21
70417;BMP280;57839;51.332;12.410;2024-02-16T00:17:45;100234.63;;;12.21
70417;BMP280;57839;51.332;12.410;2024-02-16T00:20:10;100228.47;;;12.20
70417;BMP280;57839;51.332;12.410;2024-02-16T00:22:37;100227.34;;;12.21
70417;BMP280;57839;51.332;12.410;2024-02-16T00:25:03;100227.75;;;12.23
70417;BMP280;57839;51.332;12.410;2024-02-16T00:27:29;100233.13;;;12.23
70417;BMP280;57839;51.332;12.410;2024-02-16T00:29:54;100232.69;;;12.25
70417;BMP280;57839;51.332;12.410;2024-02-16T00:32:19;100235.38;;;12.25
70417;BMP280;57839;51.332;12.410;2024-02-16T00:34:45;100230.78;;;12.25
70417;BMP280;57839;51.332;12.410;2024-02-16T00:37:11;100226.97;;;12.26
70417;BMP280;57839;51.332;12.410;2024-02-16T00:39:39;100237.72;;;12.26
70417;BMP280;57839;51.332;12.410;2024-02-16T00:42:07;100233.47;;;12.25
70417;BMP280;57839;51.332;12.410;2024-02-16T00:44:32;100230.44;;;12.27
70417;BMP280;57839;51.332;12.410;2024-02-16T00:46:58;100239.28;;;12.27
70417;BMP280;57839;51.332;12.410;2024-02-16T00:49:23;100239.63;;;12.26
70417;BMP280;57839;51.332;12.410;2024-02-16T00:51:49;100235.81;;;12.27
70417;BMP280;57839;51.332;12.410;2024-02-16T00:54:16;100240.03;;;12.28
70417;BMP280;57839;51.332;12.410;2024-02-16T00:56:41;100242.72;;;12.28
70417;BMP280;57839;51.332;12.410;2024-02-16T00:59:07;100241.19;;;12.27
70417;BMP280;57839;51.332;12.410;2024-02-16T01:01:34;100243.88;;;12.27
70417;BMP280;57839;51.332;12.410;2024-02-16T01:04:00;100238.84;;;12.25
70417;BMP280;57839;51.332;12.410;2024-02-16T01:06:26;100238.50;;;12.23
70417;BMP280;57839;51.332;12.410;2024-02-16T01:08:51;100238.84;;;12.22
70417;BMP280;57839;51.332;12.410;2024-02-16T01:11:17;100237.31;;;12.21
70417;BMP280;57839;51.332;12.410;2024-02-16T01:13:42;100237.69;;;12.19
70417;BMP280;57839;51.332;12.410;2024-02-16T01:16:08;100241.13;;;12.16
70417;BMP280;57839;51.332;12.410;2024-02-16T01:18:35;100229.19;;;12.14
70417;BMP280;57839;51.332;12.410;2024-02-16T01:21:01;100237.25;;;12.10
70417;BMP280;57839;51.332;12.410;2024-02-16T01:23:28;100235.28;;;12.04
70417;BMP280;57839;51.332;12.410;2024-02-16T01:25:54;100236.78;;;11.98
70417;BMP280;57839;51.332;12.410;2024-02-16T01:28:19;100238.28;;;11.91
70417;BMP280;57839;51.332;12.410;2024-02-16T01:30:45;100244.75;;;11.87
70417;BMP280;57839;51.332;12.410;2024-02-16T01:33:10;100233.97;;;11.83
70417;BMP280;57839;51.332;12.410;2024-02-16T01:35:36;100242.44;;;11.82
70417;BMP280;57839;51.332;12.410;2024-02-16T01:38:01;100233.97;;;11.80
70417;BMP280;57839;51.332;12.410;2024-02-16T01:40:27;100242.38;;;11.78
70417;BMP280;57839;51.332;12.410;2024-02-16T01:42:53;100235.09;;;11.79
70417;BMP280;57839;51.332;12.410;2024-02-16T01:45:18;100229.72;;;11.79
70417;BMP280;57839;51.332;12.410;2024-02-16T01:47:43;100227.03;;;11.79
70417;BMP280;57839;51.332;12.410;2024-02-16T01:50:12;100222.00;;;11.77
70417;BMP280;57839;51.332;12.410;2024-02-16T01:52:37;100227.00;;;11.75
70417;BMP280;57839;51.332;12.410;2024-02-16T01:55:03;100230.09;;;11.74
70417;BMP280;57839;51.332;12.410;2024-02-16T01:57:30;100228.88;;;11.71
70417;BMP280;57839;51.332;12.410;2024-02-16T01:59:56;100221.19;;;11.70
70417;BMP280;57839;51.332;12.410;2024-02-16T02:02:21;100220.06;;;11.67
70417;BMP280;57839;51.332;12.410;2024-02-16T02:04:47;100221.13;;;11.63
70417;BMP280;57839;51.332;12.410;2024-02-16T02:07:13;100211.53;;;11.58
70417;BMP280;57839;51.332;12.410;2024-02-16T02:09:39;100211.13;;;11.56
70417;BMP280;57839;51.332;12.410;2024-02-16T02:12:04;100201.84;;;11.54
70417;BMP280;57839;51.332;12.410;2024-02-16T02:14:29;100206.06;;;11.51
70417;BMP280;57839;51.332;12.410;2024-02-16T02:16:55;100203.00;;;11.49
70417;BMP280;57839;51.332;12.410;2024-02-16T02:19:21;100194.13;;;11.45
70417;BMP280;57839;51.332;12.410;2024-02-16T02:21:46;100193.72;;;11.43
70417;BMP280;57839;51.332;12.410;2024-02-16T02:24:12;100182.56;;;11.38
70417;BMP280;57839;51.332;12.410;2024-02-16T02:26:37;100179.41;;;11.29
70417;BMP280;57839;51.332;12.410;2024-02-16T02:29:03;100172.84;;;11.23
70417;BMP280;57839;51.332;12.410;2024-02-16T02:31:30;100169.69;;;11.17
70417;BMP280;57839;51.332;12.410;2024-02-16T02:33:55;100180.00;;;11.11
70417;BMP280;57839;51.332;12.410;2024-02-16T02:36:21;100177.66;;;11.10
70417;BMP280;57839;51.332;12.410;2024-02-16T02:38:47;100173.84;;;11.11
70417;BMP280;57839;51.332;12.410;2024-02-16T02:41:12;100176.94;;;11.13
70417;BMP280;57839;51.332;12.410;2024-02-16T02:43:41;100170.78;;;11.12
70417;BMP280;57839;51.332;12.410;2024-02-16T02:46:07;100171.97;;;11.15
70417;BMP280;57839;51.332;12.410;2024-02-16T02:48:32;100166.59;;;11.15
70417;BMP280;57839;51.332;12.410;2024-02-16T02:50:57;100154.72;;;11.16
70417;BMP280;57839;51.332;12.410;2024-02-16T02:53:27;100158.16;;;11.17
70417;BMP280;57839;51.332;12.410;2024-02-16T02:55:53;100160.91;;;11.20
70417;BMP280;57839;51.332;12.410;2024-02-16T02:58:18;100165.91;;;11.22
70417;BMP280;57839;51.332;12.410;2024-02-16T03:00:43;100162.44;;;11.21
70417;BMP280;57839;51.332;12.410;2024-02-16T03:03:09;100164.38;;;11.24
70417;BMP280;57839;51.332;12.410;2024-02-16T03:05:35;100162.09;;;11.26
70417;BMP280;57839;51.332;12.410;2024-02-16T03:08:00;100161.72;;;11.28
70417;BMP280;57839;51.332;12.410;2024-02-16T03:10:27;100159.81;;;11.28
70417;BMP280;57839;51.332;12.410;2024-02-16T03:12:56;100158.28;;;11.31
70417;BMP280;57839;51.332;12.410;2024-02-16T03:15:22;100161.75;;;11.31
70417;BMP280;57839;51.332;12.410;2024-02-16T03:17:47;100162.53;;;11.32
70417;BMP280;57839;51.332;12.410;2024-02-16T03:20:12;100171.00;;;11.34
70417;BMP280;57839;51.332;12.410;2024-02-16T03:22:38;100163.72;;;11.34
70417;BMP280;57839;51.332;12.410;2024-02-16T03:25:03;100161.81;;;11.35
70417;BMP280;57839;51.332;12.410;2024-02-16T03:27:30;100156.78;;;11.33
70417;BMP280;57839;51.332;12.410;2024-02-16T03:29:55;100148.72;;;11.30
70417;BMP280;57839;51.332;12.410;2024-02-16T03:32:21;100159.81;;;11.28
70417;BMP280;57839;51.332;12.410;2024-02-16T03:34:46;100160.19;;;11.27
70417;BMP280;57839;51.332;12.410;2024-02-16T03:37:12;100162.50;;;11.28
70417;BMP280;57839;51.332;12.410;2024-02-16T03:39:37;100169.44;;;11.29
70417;BMP280;57839;51.332;12.410;2024-02-16T03:42:03;100171.38;;;11.32
70417;BMP280;57839;51.332;12.410;2024-02-16T03:44:28;100164.09;;;11.33
70417;BMP280;57839;51.332;12.410;2024-02-16T03:46:54;100176.41;;;11.37
70417;BMP280;57839;51.332;12.410;2024-02-16T03:49:19;100166.03;;;11.39
70417;BMP280;57839;51.332;12.410;2024-02-16T03:51:45;100162.63;;;11.42
70417;BMP280;57839;51.332;12.410;2024-02-16T03:54:11;100156.53;;;11.45
70417;BMP280;57839;51.332;12.410;2024-02-16T03:56:36;100156.19;;;11.50
70417;BMP280;57839;51.332;12.410;2024-02-16T03:59:02;100144.28;;;11.51
70417;BMP280;57839;51.332;12.410;2024-02-16T04:01:29;100150.38;;;11.48
70417;BMP280;57839;51.332;12.410;2024-02-16T04:03:55;100153.06;;;11.48
70417;BMP280;57839;51.332;12.410;2024-02-16T04:06:21;100156.91;;;11.47
70417;BMP280;57839;51.332;12.410;2024-02-16T04:08:46;100151.91;;;11.46
70417;BMP280;57839;51.332;12.410;2024-02-16T04:11:13;100160.34;;;11.48
70417;BMP280;57839;51.332;12.410;2024-02-16T04:13:40;100161.13;;;11.48
70417;BMP280;57839;51.332;12.410;2024-02-16T04:16:06;100156.19;;;11.50
70417;BMP280;57839;51.332;12.410;2024-02-16T04:18:31;100161.19;;;11.55
70417;BMP280;57839;51.332;12.410;2024-02-16T04:20:56;100163.50;;;11.57
70417;BMP280;57839;51.332;12.410;2024-02-16T04:23:22;100167.41;;;11.59
70417;BMP280;57839;51.332;12.410;2024-02-16T04:25:47;100162.78;;;11.60
70417;BMP280;57839;51.332;12.410;2024-02-16T04:28:13;100152.03;;;11.63
70417;BMP280;57839;51.332;12.410;2024-02-16T04:30:39;100149.78;;;11.69
70417;BMP280;57839;51.332;12.410;2024-02-16T04:33:04;100148.69;;;11.73
70417;BMP280;57839;51.332;12.410;2024-02-16T04:35:30;100148.31;;;11.78
70417;BMP280;57839;51.332;12.410;2024-02-16T04:37:55;100144.91;;;11.81
70417;BMP280;57839;51.332;12.410;2024-02-16T04:40:20;100159.91;;;11.86
70417;BMP280;57839;51.332;12.410;2024-02-16T04:42:46;100150.31;;;11.88
70417;BMP280;57839;51.332;12.410;2024-02-16T04:45:12;100144.94;;;11.92
70417;BMP280;57839;51.332;12.410;2024-02-16T04:47:38;100148.81;;;11.98
70417;BMP280;57839;51.332;12.410;2024-02-16T04:50:05;100141.91;;;11.97
70417;BMP280;57839;51.332;12.410;2024-02-16T04:52:30;100131.53;;;11.99
70417;BMP280;57839;51.332;12.410;2024-02-16T04:54:56;100130.03;;;12.02
70417;BMP280;57839;51.332;12.410;2024-02-16T04:57:21;100135.06;;;12.07
70417;BMP280;57839;51.332;12.410;2024-02-16T04:59:47;100138.50;;;12.07
70417;BMP280;57839;51.332;12.410;2024-02-16T05:02:12;100134.66;;;12.08
70417;BMP280;57839;51.332;12.410;2024-02-16T05:04:38;100132.38;;;12.14
70417;BMP280;57839;51.332;12.410;2024-02-16T05:07:04;100133.50;;;12.13
70417;BMP280;57839;51.332;12.410;2024-02-16T05:09:31;100139.31;;;12.15
70417;BMP280;57839;51.332;12.410;2024-02-16T05:11:58;100132.78;;;12.16
70417;BMP280;57839;51.332;12.410;2024-02-16T05:14:23;100127.78;;;12.18
70417;BMP280;57839;51.332;12.410;2024-02-16T05:16:49;100128.56;;;12.22
70417;BMP280;57839;51.332;12.410;2024-02-16T05:19:15;100130.91;;;12.23
70417;BMP280;57839;51.332;12.410;2024-02-16T05:21:41;100133.19;;;12.25
70417;BMP280;57839;51.332;12.410;2024-02-16T05:24:06;100128.22;;;12.27
70417;BMP280;57839;51.332;12.410;2024-02-16T05:26:32;100121.69;;;12.28
70417;BMP280;57839;51.332;12.410;2024-02-16T05:28:57;100135.56;;;12.30
70417;BMP280;57839;51.332;12.410;2024-02-16T05:31:23;100129.78;;;12.31
70417;BMP280;57839;51.332;12.410;2024-02-16T05:33:49;100129.78;;;12.31
70417;BMP280;57839;51.332;12.410;2024-02-16T05:36:21;100126.72;;;12.33
70417;BMP280;57839;51.332;12.410;2024-02-16T05:38:50;100137.88;;;12.38
70417;BMP280;57839;51.332;12.410;2024-02-16T05:41:16;100124.81;;;12.40
70417;BMP280;57839;51.332;12.410;2024-02-16T05:43:43;100124.06;;;12.43
70417;BMP280;57839;51.332;12.410;2024-02-16T05:46:12;100128.28;;;12.41
70417;BMP280;57839;51.332;12.410;2024-02-16T05:48:38;100108.69;;;12.44
70417;BMP280;57839;51.332;12.410;2024-02-16T05:51:05;100112.16;;;12.44
70417;BMP280;57839;51.332;12.410;2024-02-16T05:53:31;100115.22;;;12.46
70417;BMP280;57839;51.332;12.410;2024-02-16T05:55:57;100107.56;;;12.45
70417;BMP280;57839;51.332;12.410;2024-02-16T05:58:23;100113.31;;;12.43
70417;BMP280;57839;51.332;12.410;2024-02-16T06:00:48;100118.69;;;12.43
70417;BMP280;57839;51.332;12.410;2024-02-16T06:03:14;100111.38;;;12.47
70417;BMP280;57839;51.332;12.410;2024-02-16T06:05:40;100114.47;;;12.49
70417;BMP280;57839;51.332;12.410;2024-02-16T06:08:11;100114.47;;;12.49
70417;BMP280;57839;51.332;12.410;2024-02-16T06:10:37;100096.41;;;12.50
70417;BMP280;57839;51.332;12.410;2024-02-16T06:13:02;100096.41;;;12.50
70417;BMP280;57839;51.332;12.410;2024-02-16T06:15:28;100107.16;;;12.53
70417;BMP280;57839;51.332;12.410;2024-02-16T06:17:53;100121.78;;;12.56
70417;BMP280;57839;51.332;12.410;2024-02-16T06:20:19;100109.91;;;12.57
70417;BMP280;57839;51.332;12.410;2024-02-16T06:22:44;100118.31;;;12.55
70417;BMP280;57839;51.332;12.410;2024-02-16T06:25:09;100119.09;;;12.56
70417;BMP280;57839;51.332;12.410;2024-02-16T06:27:35;100115.28;;;12.57
70417;BMP280;57839;51.332;12.410;2024-02-16T06:30:02;100118.72;;;12.57
70417;BMP280;57839;51.332;12.410;2024-02-16T06:32:29;100114.84;;;12.55
70417;BMP280;57839;51.332;12.410;2024-02-16T06:34:55;100131.78;;;12.55
70417;BMP280;57839;51.332;12.410;2024-02-16T06:37:21;100119.88;;;12.56
70417;BMP280;57839;51.332;12.410;2024-02-16T06:39:46;100123.72;;;12.55
70417;BMP280;57839;51.332;12.410;2024-02-16T06:42:11;100119.06;;;12.52
70417;BMP280;57839;51.332;12.410;2024-02-16T06:44:38;100132.16;;;12.54
70417;BMP280;57839;51.332;12.410;2024-02-16T06:47:04;100114.47;;;12.49
70417;BMP280;57839;51.332;12.410;2024-02-16T06:49:29;100127.56;;;12.51
70417;BMP280;57839;51.332;12.410;2024-02-16T06:51:54;100126.78;;;12.50
70417;BMP280;57839;51.332;12.410;2024-02-16T06:54:20;100130.56;;;12.46
70417;BMP280;57839;51.332;12.410;2024-02-16T06:56:45;100124.88;;;12.51
70417;BMP280;57839;51.332;12.410;2024-02-16T06:59:11;100116.03;;;12.50
70417;BMP280;57839;51.332;12.410;2024-02-16T07:01:36;100113.69;;;12.52
70417;BMP280;57839;51.332;12.410;2024-02-16T07:04:02;100118.72;;;12.50
70417;BMP280;57839;51.332;12.410;2024-02-16T07:06:27;100113.69;;;12.52
70417;BMP280;57839;51.332;12.410;2024-02-16T07:08:53;100109.47;;;12.48
70417;BMP280;57839;51.332;12.410;2024-02-16T07:11:19;100113.69;;;12.49
70417;BMP280;57839;51.332;12.410;2024-02-16T07:13:45;100106.03;;;12.51
70417;BMP280;57839;51.332;12.410;2024-02-16T07:16:11;100118.31;;;12.52
70417;BMP280;57839;51.332;12.410;2024-02-16T07:18:37;100117.16;;;12.53
70417;BMP280;57839;51.332;12.410;2024-02-16T07:21:02;100126.41;;;12.52
70417;BMP280;57839;51.332;12.410;2024-02-16T07:23:28;100117.16;;;12.53
70417;BMP280;57839;51.332;12.410;2024-02-16T07:25:54;100122.19;;;12.51
70417;BMP280;57839;51.332;12.410;2024-02-16T07:28:23;100110.66;;;12.50
70417;BMP280;57839;51.332;12.410;2024-02-16T07:30:49;100113.34;;;12.50
70417;BMP280;57839;51.332;12.410;2024-02-16T07:33:15;100111.38;;;12.54
70417;BMP280;57839;51.332;12.410;2024-02-16T07:35:40;100117.53;;;12.55
70417;BMP280;57839;51.332;12.410;2024-02-16T07:38:05;100117.94;;;12.60
70417;BMP280;57839;51.332;12.410;2024-02-16T07:40:31;100118.31;;;12.66
70417;BMP280;57839;51.332;12.410;2024-02-16T07:42:57;100118.31;;;12.66
70417;BMP280;57839;51.332;12.410;2024-02-16T07:45:22;100111.44;;;12.79
70417;BMP280;57839;51.332;12.410;2024-02-16T07:47:48;100111.44;;;12.79
70417;BMP280;57839;51.332;12.410;2024-02-16T07:50:13;100103.78;;;12.85
70417;BMP280;57839;51.332;12.410;2024-02-16T07:52:39;100103.78;;;12.85
70417;BMP280;57839;51.332;12.410;2024-02-16T07:55:05;100103.03;;;12.95
70417;BMP280;57839;51.332;12.410;2024-02-16T07:57:31;100103.03;;;12.95
70417;BMP280;57839;51.332;12.410;2024-02-16T07:59:56;100118.00;;;12.96
70417;BMP280;57839;51.332;12.410;2024-02-16T08:02:21;100111.88;;;12.92
70417;BMP280;57839;51.332;12.410;2024-02-16T08:04:47;100109.94;;;12.92
70417;BMP280;57839;51.332;12.410;2024-02-16T08:07:13;100109.19;;;12.95
70417;BMP280;57839;51.332;12.410;2024-02-16T08:09:39;100113.81;;;12.98
70417;BMP280;57839;51.332;12.410;2024-02-16T08:12:04;100112.63;;;13.03
70417;BMP280;57839;51.332;12.410;2024-02-16T08:14:32;100120.34;;;13.04
70417;BMP280;57839;51.332;12.410;2024-02-16T08:16:58;100121.09;;;13.12
70417;BMP280;57839;51.332;12.410;2024-02-16T08:19:25;100118.41;;;13.19
70417;BMP280;57839;51.332;12.410;2024-02-16T08:21:57;100117.63;;;13.29
70417;BMP280;57839;51.332;12.410;2024-02-16T08:24:22;100111.47;;;13.35
70417;BMP280;57839;51.332;12.410;2024-02-16T08:26:48;100111.09;;;13.47
70417;BMP280;57839;51.332;12.410;2024-02-16T08:29:13;100108.00;;;13.56
70417;BMP280;57839;51.332;12.410;2024-02-16T08:31:38;100110.66;;;13.63
70417;BMP280;57839;51.332;12.410;2024-02-16T08:34:04;100113.31;;;13.70
70417;BMP280;57839;51.332;12.410;2024-02-16T08:36:32;100111.00;;;13.79
70417;BMP280;57839;51.332;12.410;2024-02-16T08:38:59;100111.72;;;13.94
70417;BMP280;57839;51.332;12.410;2024-02-16T08:41:24;100112.06;;;14.13
70417;BMP280;57839;51.332;12.410;2024-02-16T08:43:50;100106.56;;;14.31
70417;BMP280;57839;51.332;12.410;2024-02-16T08:46:15;100104.91;;;14.51
70417;BMP280;57839;51.332;12.410;2024-02-16T08:48:41;100112.88;;;14.72
70417;BMP280;57839;51.332;12.410;2024-02-16T08:51:06;100108.47;;;14.92
70417;BMP280;57839;51.332;12.410;2024-02-16T08:53:31;100104.03;;;15.16
70417;BMP280;57839;51.332;12.410;2024-02-16T08:55:57;100110.41;;;15.36
70417;BMP280;57839;51.332;12.410;2024-02-16T08:58:22;100101.72;;;15.55
70417;BMP280;57839;51.332;12.410;2024-02-16T09:00:47;100104.72;;;15.61
70417;BMP280;57839;51.332;12.410;2024-02-16T09:03:15;100105.94;;;15.56
70417;BMP280;57839;51.332;12.410;2024-02-16T09:05:41;100102.13;;;15.54
70417;BMP280;57839;51.332;12.410;2024-02-16T09:08:09;100116.03;;;15.52
70417;BMP280;57839;51.332;12.410;2024-02-16T09:10:34;100103.34;;;15.46
70417;BMP280;57839;51.332;12.410;2024-02-16T09:13:00;100115.38;;;15.41
70417;BMP280;57839;51.332;12.410;2024-02-16T09:15:25;100107.31;;;15.38
70417;BMP280;57839;51.332;12.410;2024-02-16T09:17:51;100102.69;;;15.38
70417;BMP280;57839;51.332;12.410;2024-02-16T09:20:16;100104.28;;;15.32
70417;BMP280;57839;51.332;12.410;2024-02-16T09:22:48;100105.88;;;15.26
70417;BMP280;57839;51.332;12.410;2024-02-16T09:25:13;100100.09;;;15.24
70417;BMP280;57839;51.332;12.410;2024-02-16T09:27:39;100110.97;;;15.17
70417;BMP280;57839;51.332;12.410;2024-02-16T09:30:07;100098.63;;;15.16
70417;BMP280;57839;51.332;12.410;2024-02-16T09:32:35;100097.09;;;15.15
70417;BMP280;57839;51.332;12.410;2024-02-16T09:35:01;100094.34;;;15.18
70417;BMP280;57839;51.332;12.410;2024-02-16T09:37:26;100113.56;;;15.27
70417;BMP280;57839;51.332;12.410;2024-02-16T09:39:52;100089.25;;;15.27
70417;BMP280;57839;51.332;12.410;2024-02-16T09:42:17;100088.44;;;15.30
70417;BMP280;57839;51.332;12.410;2024-02-16T09:44:43;100087.69;;;15.30
70417;BMP280;57839;51.332;12.410;2024-02-16T09:47:09;100097.34;;;15.31
70417;BMP280;57839;51.332;12.410;2024-02-16T09:49:38;100099.25;;;15.30
70417;BMP280;57839;51.332;12.410;2024-02-16T09:52:04;100097.66;;;15.36
70417;BMP280;57839;51.332;12.410;2024-02-16T09:54:33;100104.91;;;15.47
70417;BMP280;57839;51.332;12.410;2024-02-16T09:57:01;100104.91;;;15.47
70417;BMP280;57839;51.332;12.410;2024-02-16T09:59:27;100093.19;;;15.57
70417;BMP280;57839;51.332;12.410;2024-02-16T10:02:02;100092.28;;;15.70
70417;BMP280;57839;51.332;12.410;2024-02-16T10:04:28;100110.06;;;16.01
70417;BMP280;57839;51.332;12.410;2024-02-16T10:06:54;100098.84;;;16.29
70417;BMP280;57839;51.332;12.410;2024-02-16T10:09:23;100109.31;;;16.54
70417;BMP280;57839;51.332;12.410;2024-02-16T10:11:49;100110.94;;;16.75
70417;BMP280;57839;51.332;12.410;2024-02-16T10:14:14;100098.09;;;17.02
70417;BMP280;57839;51.332;12.410;2024-02-16T10:16:40;100093.84;;;17.24
70417;BMP280;57839;51.332;12.410;2024-02-16T10:19:06;100095.31;;;17.48
70417;BMP280;57839;51.332;12.410;2024-02-16T10:21:31;100111.97;;;17.66
70417;BMP280;57839;51.332;12.410;2024-02-16T10:24:01;100103.06;;;17.85
70417;BMP280;57839;51.332;12.410;2024-02-16T10:26:30;100114.69;;;17.86
70417;BMP280;57839;51.332;12.410;2024-02-16T10:28:56;100120.06;;;17.70
70417;BMP280;57839;51.332;12.410;2024-02-16T10:31:27;100120.06;;;17.70
70417;BMP280;57839;51.332;12.410;2024-02-16T10:34:02;100136.91;;;17.61
70417;BMP280;57839;51.332;12.410;2024-02-16T10:36:31;100136.91;;;17.61
70417;BMP280;57839;51.332;12.410;2024-02-16T10:38:56;100138.34;;;17.46
70417;BMP280;57839;51.332;12.410;2024-02-16T10:41:25;100127.50;;;17.46
70417;BMP280;57839;51.332;12.410;2024-02-16T10:43:51;100126.13;;;17.58
70417;BMP280;57839;51.332;12.410;2024-02-16T10:46:18;100128.28;;;17.86
70417;BMP280;57839;51.332;12.410;2024-02-16T10:48:45;100139.06;;;17.89
70417;BMP280;57839;51.332;12.410;2024-02-16T10:51:10;100140.88;;;17.76
70417;BMP280;57839;51.332;12.410;2024-02-16T10:53:36;100146.22;;;17.80
70417;BMP280;57839;51.332;12.410;2024-02-16T10:56:02;100137.09;;;17.90
70417;BMP280;57839;51.332;12.410;2024-02-16T10:58:28;100148.91;;;17.83
70417;BMP280;57839;51.332;12.410;2024-02-16T11:00:55;100152.06;;;17.78
70417;BMP280;57839;51.332;12.410;2024-02-16T11:03:21;100152.06;;;17.78
70417;BMP280;57839;51.332;12.410;2024-02-16T11:05:48;100135.84;;;17.36
70417;BMP280;57839;51.332;12.410;2024-02-16T11:08:15;100135.84;;;17.36
70417;BMP280;57839;51.332;12.410;2024-02-16T11:10:41;100126.94;;;17.15
70417;BMP280;57839;51.332;12.410;2024-02-16T11:13:21;100126.94;;;17.15
70417;BMP280;57839;51.332;12.410;2024-02-16T11:15:47;100140.53;;;16.89
70417;BMP280;57839;51.332;12.410;2024-02-16T11:18:21;100140.53;;;16.89
70417;BMP280;57839;51.332;12.410;2024-02-16T11:20:47;100135.31;;;16.75
70417;BMP280;57839;51.332;12.410;2024-02-16T11:23:14;100135.31;;;16.75
70417;BMP280;57839;51.332;12.410;2024-02-16T11:25:40;100134.25;;;16.69
70417;BMP280;57839;51.332;12.410;2024-02-16T11:28:05;100134.25;;;16.69
70417;BMP280;57839;51.332;12.410;2024-02-16T11:30:34;100133.13;;;16.66
70417;BMP280;57839;51.332;12.410;2024-02-16T11:33:02;100123.50;;;16.65
70417;BMP280;57839;51.332;12.410;2024-02-16T11:35:28;100127.38;;;16.64
70417;BMP280;57839;51.332;12.410;2024-02-16T11:37:55;100120.47;;;16.60
70417;BMP280;57839;51.332;12.410;2024-02-16T11:40:20;100119.00;;;16.55
70417;BMP280;57839;51.332;12.410;2024-02-16T11:42:46;100107.88;;;16.46
70417;BMP280;57839;51.332;12.410;2024-02-16T11:45:12;100102.94;;;16.41
70417;BMP280;57839;51.332;12.410;2024-02-16T11:47:37;100114.94;;;16.40
70417;BMP280;57839;51.332;12.410;2024-02-16T11:50:09;100107.94;;;16.43
70417;BMP280;57839;51.332;12.410;2024-02-16T11:52:36;100105.22;;;16.43
70417;BMP280;57839;51.332;12.410;2024-02-16T11:55:01;100105.63;;;16.45
70417;BMP280;57839;51.332;12.410;2024-02-16T11:57:29;100109.81;;;16.46
70417;BMP280;57839;51.332;12.410;2024-02-16T11:59:54;100114.44;;;16.49
70417;BMP280;57839;51.332;12.410;2024-02-16T12:02:20;100111.66;;;16.52
70417;BMP280;57839;51.332;12.410;2024-02-16T12:04:48;100106.16;;;16.59
70417;BMP280;57839;51.332;12.410;2024-02-16T12:07:22;100113.09;;;16.60
70417;BMP280;57839;51.332;12.410;2024-02-16T12:09:59;100119.31;;;16.57
70417;BMP280;57839;51.332;12.410;2024-02-16T12:12:25;100116.09;;;16.66
70417;BMP280;57839;51.332;12.410;2024-02-16T12:14:52;100114.06;;;16.73
70417;BMP280;57839;51.332;12.410;2024-02-16T12:17:17;100119.59;;;16.89
70417;BMP280;57839;51.332;12.410;2024-02-16T12:19:43;100115.41;;;17.08
70417;BMP280;57839;51.332;12.410;2024-02-16T12:22:09;100104.53;;;17.31
70417;BMP280;57839;51.332;12.410;2024-02-16T12:24:34;100101.31;;;17.59
70417;BMP280;57839;51.332;12.410;2024-02-16T12:27:00;100097.81;;;17.78
70417;BMP280;57839;51.332;12.410;2024-02-16T12:29:25;100098.63;;;17.95
70417;BMP280;57839;51.332;12.410;2024-02-16T12:31:51;100106.19;;;18.03
70417;BMP280;57839;51.332;12.410;2024-02-16T12:34:16;100102.63;;;18.06
70417;BMP280;57839;51.332;12.410;2024-02-16T12:36:42;100102.97;;;18.08
70417;BMP280;57839;51.332;12.410;2024-02-16T12:39:07;100102.91;;;18.12
70417;BMP280;57839;51.332;12.410;2024-02-16T12:41:34;100099.66;;;18.17
70417;BMP280;57839;51.332;12.410;2024-02-16T12:44:01;100100.94;;;18.28
70417;BMP280;57839;51.332;12.410;2024-02-16T12:46:26;100093.19;;;18.30
70417;BMP280;57839;51.332;12.410;2024-02-16T12:48:53;100088.09;;;18.49
70417;BMP280;57839;51.332;12.410;2024-02-16T12:51:18;100095.13;;;18.62
70417;BMP280;57839;51.332;12.410;2024-02-16T12:53:44;100092.41;;;18.78
70417;BMP280;57839;51.332;12.410;2024-02-16T12:56:10;100089.91;;;18.84
70417;BMP280;57839;51.332;12.410;2024-02-16T12:58:36;100090.16;;;18.73
70417;BMP280;57839;51.332;12.410;2024-02-16T13:01:02;100092.41;;;18.62
70417;BMP280;57839;51.332;12.410;2024-02-16T13:03:27;100097.50;;;18.60
70417;BMP280;57839;51.332;12.410;2024-02-16T13:05:53;100094.69;;;18.48
70417;BMP280;57839;51.332;12.410;2024-02-16T13:08:18;100094.63;;;18.51
70417;BMP280;57839;51.332;12.410;2024-02-16T13:10:44;100083.31;;;18.53
70417;BMP280;57839;51.332;12.410;2024-02-16T13:13:09;100081.69;;;18.55
70417;BMP280;57839;51.332;12.410;2024-02-16T13:15:35;100089.94;;;18.52
70417;BMP280;57839;51.332;12.410;2024-02-16T13:18:00;100086.38;;;18.39
70417;BMP280;57839;51.332;12.410;2024-02-16T13:20:25;100093.34;;;18.40
70417;BMP280;57839;51.332;12.410;2024-02-16T13:22:51;100095.34;;;18.35
70417;BMP280;57839;51.332;12.410;2024-02-16T13:25:17;100107.16;;;18.29
70417;BMP280;57839;51.332;12.410;2024-02-16T13:27:43;100097.66;;;18.21
70417;BMP280;57839;51.332;12.410;2024-02-16T13:30:08;100094.09;;;18.24
70417;BMP280;57839;51.332;12.410;2024-02-16T13:32:34;100094.16;;;18.20
70417;BMP280;57839;51.332;12.410;2024-02-16T13:35:01;100093.13;;;18.14
70417;BMP280;57839;51.332;12.410;2024-02-16T13:37:28;100093.56;;;18.13